createdAt,value
2019-06-26T00:00:09.990Z,21.80
2019-06-26T00:02:38.236Z,21.80
2019-06-26T00:05:07.383Z,21.80
2019-06-26T00:07:35.688Z,21.80
2019-06-26T00:10:05.277Z,21.80
2019-06-26T00:12:33.500Z,21.70
2019-06-26T00:15:01.796Z,21.70
2019-06-26T00:17:30.065Z,21.60
2019-06-26T00:19:58.379Z,21.70
2019-06-26T00:22:26.841Z,21.60
2019-06-26T00:24:55.117Z,21.60
2019-06-26T00:27:23.425Z,21.50
2019-06-26T00:29:51.696Z,21.50
2019-06-26T00:32:19.931Z,21.50
2019-06-26T00:34:48.196Z,21.50
2019-06-26T00:37:16.426Z,21.40
2019-06-26T00:39:44.690Z,21.40
2019-06-26T00:42:12.945Z,21.40
2019-06-26T00:44:41.210Z,21.40
2019-06-26T00:47:09.442Z,21.40
2019-06-26T00:49:37.749Z,21.40
2019-06-26T00:52:05.978Z,21.40
2019-06-26T00:54:34.240Z,21.30
2019-06-26T00:57:02.497Z,21.30
2019-06-26T00:59:30.733Z,21.30
2019-06-26T01:01:58.997Z,21.30
2019-06-26T01:04:31.880Z,21.20
2019-06-26T01:07:00.131Z,21.20
2019-06-26T01:09:28.368Z,21.20
2019-06-26T01:11:56.624Z,21.20
2019-06-26T01:14:24.879Z,21.20
2019-06-26T01:16:53.157Z,21.10
2019-06-26T01:19:21.390Z,21.10
2019-06-26T01:21:49.647Z,21.10
2019-06-26T01:24:17.970Z,21.10
2019-06-26T01:26:46.244Z,21.00
2019-06-26T01:29:14.473Z,21.00
2019-06-26T01:31:42.741Z,21.00
2019-06-26T01:34:10.976Z,21.00
2019-06-26T01:36:39.247Z,21.00
2019-06-26T01:39:07.570Z,21.00
2019-06-26T01:41:35.884Z,21.00
2019-06-26T01:44:14.071Z,21.00
2019-06-26T01:46:34.154Z,20.90
2019-06-26T01:49:02.537Z,20.90
2019-06-26T01:51:30.981Z,21.00
2019-06-26T01:53:59.270Z,20.90
2019-06-26T01:56:27.533Z,20.90
2019-06-26T01:58:55.768Z,20.90
2019-06-26T02:01:24.259Z,20.90
2019-06-26T02:03:52.670Z,20.90
2019-06-26T02:06:20.925Z,20.90
2019-06-26T02:08:49.157Z,20.90
2019-06-26T02:11:17.426Z,20.80
2019-06-26T02:13:45.708Z,20.80
2019-06-26T02:16:13.969Z,20.80
2019-06-26T02:18:43.861Z,20.80
2019-06-26T02:21:12.148Z,20.80
2019-06-26T02:23:40.385Z,20.80
2019-06-26T02:26:08.635Z,20.70
2019-06-26T02:28:36.885Z,20.70
2019-06-26T02:31:05.126Z,20.70
2019-06-26T02:33:33.390Z,20.60
2019-06-26T02:36:01.650Z,20.60
2019-06-26T02:38:29.915Z,20.60
2019-06-26T02:40:58.173Z,20.60
2019-06-26T02:43:26.500Z,20.60
2019-06-26T02:45:54.749Z,20.60
2019-06-26T02:48:23.053Z,20.60
2019-06-26T02:50:51.309Z,20.60
2019-06-26T02:53:19.564Z,20.60
2019-06-26T02:55:47.793Z,20.60
2019-06-26T02:58:16.049Z,20.50
2019-06-26T03:00:44.291Z,20.50
2019-06-26T03:03:12.517Z,20.50
2019-06-26T03:05:40.777Z,20.50
2019-06-26T03:08:09.053Z,20.50
2019-06-26T03:10:37.296Z,20.50
2019-06-26T03:13:08.551Z,20.40
2019-06-26T03:15:36.813Z,20.40
2019-06-26T03:18:05.043Z,20.40
2019-06-26T03:20:42.297Z,20.40
2019-06-26T03:23:10.537Z,20.40
2019-06-26T03:25:38.798Z,20.40
2019-06-26T03:28:07.102Z,20.40
2019-06-26T03:30:35.362Z,20.30
2019-06-26T03:33:03.598Z,20.30
2019-06-26T03:35:31.885Z,20.30
2019-06-26T03:38:00.106Z,20.30
2019-06-26T03:40:28.372Z,20.30
2019-06-26T03:42:56.670Z,20.40
2019-06-26T03:45:26.391Z,20.40
2019-06-26T03:47:54.882Z,20.40
2019-06-26T03:50:23.126Z,20.40
2019-06-26T03:52:51.503Z,20.40
2019-06-26T03:55:19.764Z,20.40
2019-06-26T03:57:48.054Z,20.40
2019-06-26T04:00:17.976Z,20.40
2019-06-26T04:02:46.224Z,20.40
2019-06-26T04:05:14.479Z,20.40
2019-06-26T04:07:42.725Z,20.40
2019-06-26T04:10:11.253Z,20.50
2019-06-26T04:12:39.675Z,20.50
2019-06-26T04:15:08.105Z,20.50
2019-06-26T04:17:36.351Z,20.60
2019-06-26T04:20:07.703Z,20.60
2019-06-26T04:22:35.989Z,20.60
2019-06-26T04:25:06.237Z,20.60
2019-06-26T04:27:34.481Z,20.70
2019-06-26T04:30:02.797Z,20.70
2019-06-26T04:32:31.057Z,20.70
2019-06-26T04:34:59.331Z,20.60
2019-06-26T04:37:27.586Z,20.60
2019-06-26T04:39:55.827Z,20.70
2019-06-26T04:42:24.085Z,20.80
2019-06-26T04:44:52.335Z,21.00
2019-06-26T04:47:20.594Z,21.10
2019-06-26T04:49:48.836Z,21.30
2019-06-26T04:52:17.093Z,21.40
2019-06-26T04:54:45.331Z,21.50
2019-06-26T04:57:13.590Z,21.60
2019-06-26T04:59:41.914Z,21.50
2019-06-26T05:02:10.169Z,21.60
2019-06-26T05:04:38.423Z,21.70
2019-06-26T05:07:06.678Z,21.90
2019-06-26T05:09:34.932Z,22.00
2019-06-26T05:12:03.176Z,22.00
2019-06-26T05:14:31.421Z,22.10
2019-06-26T05:16:59.672Z,22.20
2019-06-26T05:19:27.954Z,22.20
2019-06-26T05:21:56.262Z,22.30
2019-06-26T05:24:24.498Z,22.40
2019-06-26T05:26:52.790Z,22.50
2019-06-26T05:29:21.049Z,22.50
2019-06-26T05:31:49.285Z,22.60
2019-06-26T05:34:17.563Z,22.80
2019-06-26T05:36:45.800Z,22.90
2019-06-26T05:39:14.070Z,23.10
2019-06-26T05:41:42.296Z,23.10
2019-06-26T05:44:10.557Z,23.20
2019-06-26T05:46:38.790Z,23.30
2019-06-26T05:49:07.052Z,23.40
2019-06-26T05:51:35.315Z,23.60
2019-06-26T05:54:06.272Z,23.70
2019-06-26T05:56:34.565Z,23.80
2019-06-26T05:59:02.838Z,23.90
2019-06-26T06:01:31.188Z,24.10
2019-06-26T06:03:59.435Z,24.10
2019-06-26T06:06:40.689Z,24.20
2019-06-26T06:08:57.666Z,24.30
2019-06-26T06:11:25.913Z,24.40
2019-06-26T06:13:54.244Z,24.60
2019-06-26T06:16:22.473Z,24.70
2019-06-26T06:18:50.749Z,24.70
2019-06-26T06:21:18.997Z,24.80
2019-06-26T06:23:47.245Z,24.90
2019-06-26T06:26:15.482Z,24.90
2019-06-26T06:28:43.712Z,24.90
2019-06-26T06:31:11.989Z,25.10
2019-06-26T06:33:40.350Z,25.20
2019-06-26T06:36:09.826Z,25.30
2019-06-26T06:38:38.267Z,25.40
2019-06-26T06:41:06.506Z,25.50
2019-06-26T06:43:34.750Z,25.60
2019-06-26T06:46:03.217Z,25.70
2019-06-26T06:48:31.628Z,25.80
2019-06-26T06:50:59.876Z,25.70
2019-06-26T06:53:28.197Z,25.80
2019-06-26T06:55:56.448Z,26.00
2019-06-26T06:58:24.742Z,26.10
2019-06-26T07:00:52.995Z,26.30
2019-06-26T07:03:22.054Z,26.40
2019-06-26T07:05:50.303Z,26.50
2019-06-26T07:08:18.578Z,26.60
2019-06-26T07:10:46.915Z,26.80
2019-06-26T07:13:15.183Z,26.90
2019-06-26T07:15:43.502Z,27.00
2019-06-26T07:18:11.745Z,27.20
2019-06-26T07:20:40.175Z,27.40
2019-06-26T07:23:08.408Z,27.60
2019-06-26T07:25:36.677Z,27.70
2019-06-26T07:28:04.959Z,27.80
2019-06-26T07:30:33.310Z,27.90
2019-06-26T07:33:01.581Z,27.70
2019-06-26T07:35:29.820Z,27.80
2019-06-26T07:38:00.241Z,28.00
2019-06-26T07:40:28.037Z,28.20
2019-06-26T07:42:56.304Z,28.30
2019-06-26T07:45:24.564Z,28.40
2019-06-26T07:47:52.876Z,28.50
2019-06-26T07:50:21.105Z,28.70
2019-06-26T07:52:49.384Z,28.70
2019-06-26T07:55:17.687Z,28.90
2019-06-26T07:57:45.941Z,29.00
2019-06-26T08:00:15.146Z,29.10
2019-06-26T08:02:43.409Z,29.30
2019-06-26T08:05:11.640Z,29.40
2019-06-26T08:07:39.889Z,29.30
2019-06-26T08:10:08.132Z,29.40
2019-06-26T08:12:36.385Z,29.60
2019-06-26T08:15:06.185Z,29.70
2019-06-26T08:17:34.449Z,29.70
2019-06-26T08:20:02.688Z,29.80
2019-06-26T08:22:30.952Z,29.90
2019-06-26T08:24:59.205Z,30.10
2019-06-26T08:27:27.461Z,30.10
2019-06-26T08:29:55.806Z,30.10
2019-06-26T08:32:25.999Z,30.20
2019-06-26T08:34:54.077Z,30.10
2019-06-26T08:37:22.364Z,30.20
2019-06-26T08:39:50.601Z,30.30
2019-06-26T08:42:19.002Z,30.30
2019-06-26T08:44:47.302Z,30.30
2019-06-26T08:47:15.544Z,30.40
2019-06-26T08:49:43.801Z,30.40
2019-06-26T08:52:12.050Z,30.40
2019-06-26T08:54:40.321Z,30.50
2019-06-26T08:57:08.566Z,30.50
2019-06-26T08:59:36.809Z,30.60
2019-06-26T09:02:05.045Z,30.70
2019-06-26T09:04:33.313Z,30.90
2019-06-26T09:07:01.556Z,30.90
2019-06-26T09:09:29.817Z,31.00
2019-06-26T09:11:58.045Z,31.10
2019-06-26T09:14:26.381Z,31.10
2019-06-26T09:16:54.635Z,31.00
2019-06-26T09:19:22.885Z,31.10
2019-06-26T09:21:51.120Z,31.10
2019-06-26T09:24:19.392Z,31.20
2019-06-26T09:26:47.692Z,31.30
2019-06-26T09:29:16.033Z,31.30
2019-06-26T09:31:44.267Z,31.40
2019-06-26T09:34:12.547Z,31.30
2019-06-26T09:36:40.811Z,31.40
2019-06-26T09:39:09.118Z,31.40
2019-06-26T09:41:37.365Z,31.50
2019-06-26T09:44:05.640Z,31.60
2019-06-26T09:46:33.941Z,31.60
2019-06-26T09:49:02.222Z,31.70
2019-06-26T09:51:30.585Z,31.80
2019-06-26T09:53:58.914Z,31.90
2019-06-26T09:56:27.176Z,32.00
2019-06-26T09:58:55.421Z,32.00
2019-06-26T10:01:23.674Z,32.00
2019-06-26T10:03:51.934Z,32.00
2019-06-26T10:06:20.260Z,32.20
2019-06-26T10:08:48.515Z,32.30
2019-06-26T10:11:16.790Z,32.30
2019-06-26T10:13:45.025Z,32.30
2019-06-26T10:16:13.298Z,32.30
2019-06-26T10:18:41.528Z,32.20
2019-06-26T10:21:09.791Z,32.20
2019-06-26T10:23:38.073Z,32.20
2019-06-26T10:26:06.419Z,32.20
2019-06-26T10:28:34.814Z,32.20
2019-06-26T10:31:03.085Z,32.30
2019-06-26T10:33:31.344Z,32.30
2019-06-26T10:35:59.590Z,32.50
2019-06-26T10:38:27.834Z,32.50
2019-06-26T10:40:56.093Z,32.60
2019-06-26T10:43:24.681Z,32.80
2019-06-26T10:45:52.990Z,32.90
2019-06-26T10:48:21.213Z,32.90
2019-06-26T10:50:57.899Z,32.90
2019-06-26T10:53:19.448Z,33.00
2019-06-26T10:55:47.691Z,33.00
2019-06-26T10:58:15.953Z,33.10
2019-06-26T11:00:44.234Z,33.10
2019-06-26T11:03:12.561Z,33.10
2019-06-26T11:05:41.647Z,33.20
2019-06-26T11:08:09.958Z,33.20
2019-06-26T11:10:38.189Z,33.30
2019-06-26T11:13:06.445Z,33.50
2019-06-26T11:15:34.693Z,33.50
2019-06-26T11:18:02.965Z,33.70
2019-06-26T11:20:31.295Z,33.80
2019-06-26T11:22:59.742Z,33.80
2019-06-26T11:25:28.048Z,33.80
2019-06-26T11:27:56.316Z,33.80
2019-06-26T11:30:24.551Z,33.70
2019-06-26T11:32:52.822Z,33.70
2019-06-26T11:35:21.068Z,33.70
2019-06-26T11:37:49.317Z,33.70
2019-06-26T11:40:17.654Z,33.70
2019-06-26T11:42:46.194Z,33.70
2019-06-26T11:45:14.571Z,33.60
2019-06-26T11:47:45.700Z,33.70
2019-06-26T11:50:12.881Z,33.70
2019-06-26T11:52:41.132Z,33.70
2019-06-26T11:55:09.476Z,33.70
2019-06-26T11:57:37.749Z,33.60
2019-06-26T12:00:14.349Z,33.60
2019-06-26T12:02:42.668Z,33.90
2019-06-26T12:05:11.797Z,34.00
2019-06-26T12:07:40.056Z,34.10
2019-06-26T12:10:10.025Z,34.30
2019-06-26T12:12:37.749Z,34.30
2019-06-26T12:15:06.841Z,34.30
2019-06-26T12:17:35.082Z,34.30
2019-06-26T12:20:17.814Z,34.30
2019-06-26T12:22:34.157Z,34.30
2019-06-26T12:25:02.500Z,34.20
2019-06-26T12:27:30.735Z,34.20
2019-06-26T12:29:59.005Z,34.20
2019-06-26T12:32:27.266Z,34.20
2019-06-26T12:34:55.806Z,34.10
2019-06-26T12:37:36.980Z,34.20
2019-06-26T12:39:54.146Z,34.30
2019-06-26T12:42:22.457Z,34.40
2019-06-26T12:44:50.745Z,34.40
2019-06-26T12:47:18.971Z,34.50
2019-06-26T12:49:47.230Z,34.50
2019-06-26T12:52:17.040Z,34.50
2019-06-26T12:54:44.935Z,34.50
2019-06-26T12:57:13.173Z,34.60
2019-06-26T12:59:56.003Z,34.70
2019-06-26T13:02:11.426Z,34.70
2019-06-26T13:04:39.689Z,34.80
2019-06-26T13:07:08.230Z,34.90
2019-06-26T13:09:36.615Z,35.00
2019-06-26T13:12:05.020Z,35.00
2019-06-26T13:14:33.289Z,35.10
2019-06-26T13:17:01.640Z,35.10
2019-06-26T13:19:29.971Z,35.20
2019-06-26T13:21:58.340Z,35.30
2019-06-26T13:24:26.619Z,35.40
2019-06-26T13:26:54.899Z,35.40
2019-06-26T13:29:23.304Z,35.50
2019-06-26T13:31:51.575Z,35.40
2019-06-26T13:34:19.805Z,35.40
2019-06-26T13:36:48.626Z,35.30
2019-06-26T13:39:16.906Z,35.40
2019-06-26T13:41:45.172Z,35.50
2019-06-26T13:44:13.411Z,35.60
2019-06-26T13:46:41.689Z,35.70
2019-06-26T13:49:09.999Z,35.60
2019-06-26T13:51:38.268Z,35.70
2019-06-26T13:54:06.505Z,35.70
2019-06-26T13:56:34.770Z,35.70
2019-06-26T13:59:03.039Z,35.80
2019-06-26T14:01:31.297Z,35.90
2019-06-26T14:03:59.557Z,36.00
2019-06-26T14:06:27.828Z,36.20
2019-06-26T14:08:56.154Z,36.30
2019-06-26T14:11:24.470Z,36.40
2019-06-26T14:13:52.735Z,36.50
2019-06-26T14:16:21.004Z,36.50
2019-06-26T14:18:49.242Z,36.50
2019-06-26T14:21:25.607Z,36.40
2019-06-26T14:23:46.794Z,36.40
2019-06-26T14:26:15.052Z,36.40
2019-06-26T14:28:43.309Z,36.30
2019-06-26T14:31:11.547Z,36.30
2019-06-26T14:33:39.816Z,36.40
2019-06-26T14:36:08.054Z,36.60
2019-06-26T14:38:36.317Z,36.70
2019-06-26T14:41:04.579Z,36.70
2019-06-26T14:43:32.897Z,36.80
2019-06-26T14:46:01.146Z,36.80
2019-06-26T14:48:29.417Z,36.80
2019-06-26T14:50:57.652Z,36.80
2019-06-26T14:53:27.557Z,36.70
2019-06-26T14:55:55.883Z,36.50
2019-06-26T14:58:24.292Z,36.60
2019-06-26T15:00:52.549Z,36.70
2019-06-26T15:03:20.870Z,36.70
2019-06-26T15:05:49.100Z,36.80
2019-06-26T15:08:17.367Z,36.90
2019-06-26T15:10:45.665Z,37.00
2019-06-26T15:13:13.919Z,37.00
2019-06-26T15:15:42.164Z,37.00
2019-06-26T15:18:11.571Z,37.10
2019-06-26T15:20:40.173Z,37.20
2019-06-26T15:23:08.446Z,37.30
2019-06-26T15:25:36.701Z,37.40
2019-06-26T15:28:04.999Z,37.50
2019-06-26T15:30:33.259Z,37.60
2019-06-26T15:33:01.575Z,37.60
2019-06-26T15:35:29.812Z,37.70
2019-06-26T15:37:58.059Z,37.70
2019-06-26T15:40:26.320Z,37.60
2019-06-26T15:42:54.612Z,37.50
2019-06-26T15:45:22.958Z,37.40
2019-06-26T15:47:51.209Z,37.30
2019-06-26T15:50:19.478Z,37.20
2019-06-26T15:52:47.727Z,37.30
2019-06-26T15:55:15.992Z,37.20
2019-06-26T15:57:44.256Z,37.30
2019-06-26T16:00:12.574Z,37.40
2019-06-26T16:02:40.934Z,37.30
2019-06-26T16:05:09.268Z,37.40
2019-06-26T16:07:37.530Z,37.30
2019-06-26T16:10:09.178Z,37.30
2019-06-26T16:12:37.433Z,37.30
2019-06-26T16:15:06.221Z,37.40
2019-06-26T16:17:42.107Z,37.60
2019-06-26T16:20:10.426Z,37.60
2019-06-26T16:22:38.672Z,37.70
2019-06-26T16:25:07.423Z,37.80
2019-06-26T16:27:35.715Z,37.90
2019-06-26T16:30:08.156Z,38.10
2019-06-26T16:32:36.445Z,38.20
2019-06-26T16:35:06.742Z,38.40
2019-06-26T16:37:35.023Z,38.40
2019-06-26T16:40:04.920Z,38.50
2019-06-26T16:42:32.464Z,38.50
2019-06-26T16:45:00.737Z,38.40
2019-06-26T16:47:28.968Z,38.30
2019-06-26T16:49:57.236Z,38.30
2019-06-26T16:52:25.470Z,38.50
2019-06-26T16:54:53.734Z,38.60
2019-06-26T16:57:21.965Z,38.70
2019-06-26T16:59:50.239Z,38.50
2019-06-26T17:02:18.523Z,38.60
2019-06-26T17:04:46.762Z,38.70
2019-06-26T17:07:15.042Z,38.70
2019-06-26T17:09:44.403Z,38.70
2019-06-26T17:12:12.822Z,38.70
2019-06-26T17:14:41.075Z,38.60
2019-06-26T17:17:09.416Z,38.50
2019-06-26T17:19:37.669Z,38.70
2019-06-26T17:22:05.938Z,38.80
2019-06-26T17:24:34.194Z,38.80
2019-06-26T17:27:02.464Z,38.80
2019-06-26T17:29:30.718Z,39.10
2019-06-26T17:31:58.991Z,39.30
2019-06-26T17:34:27.441Z,39.40
2019-06-26T17:36:55.785Z,39.70
2019-06-26T17:39:24.042Z,39.80
2019-06-26T17:41:52.309Z,40.00
2019-06-26T17:44:20.557Z,40.30
2019-06-26T17:46:48.853Z,40.60
2019-06-26T17:49:17.107Z,40.90
2019-06-26T17:51:45.411Z,41.40
2019-06-26T17:54:13.673Z,41.70
2019-06-26T17:56:41.928Z,42.00
2019-06-26T17:59:10.222Z,42.20
2019-06-26T18:01:38.550Z,42.20
2019-06-26T18:04:06.790Z,42.10
2019-06-26T18:06:35.035Z,42.20
2019-06-26T18:09:03.295Z,42.40
2019-06-26T18:11:31.549Z,42.30
2019-06-26T18:13:59.900Z,42.30
2019-06-26T18:16:28.156Z,43.30
2019-06-26T18:18:56.441Z,42.00
2019-06-26T18:21:24.759Z,41.90
2019-06-26T18:23:53.099Z,41.20
2019-06-26T18:26:21.350Z,40.00
2019-06-26T18:28:49.617Z,38.90
2019-06-26T18:31:17.909Z,38.10
2019-06-26T18:33:46.179Z,36.90
2019-06-26T18:36:14.413Z,36.30
2019-06-26T18:38:42.689Z,35.60
2019-06-26T18:41:10.944Z,35.00
2019-06-26T18:43:39.235Z,34.50
2019-06-26T18:46:07.576Z,34.00
2019-06-26T18:48:35.847Z,33.50
2019-06-26T18:51:04.102Z,33.30
2019-06-26T18:53:32.368Z,33.00
2019-06-26T18:56:00.619Z,32.60
2019-06-26T18:58:30.869Z,32.30
2019-06-26T19:00:58.869Z,32.10
2019-06-26T19:03:27.120Z,31.80
2019-06-26T19:05:55.373Z,31.70
2019-06-26T19:08:23.606Z,31.60
2019-06-26T19:10:51.871Z,31.30
2019-06-26T19:13:20.672Z,31.00
2019-06-26T19:15:49.065Z,30.90
2019-06-26T19:18:17.344Z,30.70
2019-06-26T19:20:45.589Z,30.50
2019-06-26T19:23:13.855Z,30.30
2019-06-26T19:25:42.153Z,30.20
2019-06-26T19:28:10.406Z,29.90
2019-06-26T19:30:38.676Z,29.70
2019-06-26T19:33:06.987Z,29.50
2019-06-26T19:35:35.277Z,29.40
2019-06-26T19:38:03.529Z,29.20
2019-06-26T19:40:31.818Z,29.10
2019-06-26T19:43:00.065Z,28.90
2019-06-26T19:45:28.414Z,28.80
2019-06-26T19:47:56.685Z,28.80
2019-06-26T19:50:24.941Z,28.60
2019-06-26T19:52:53.178Z,28.50
2019-06-26T19:55:21.472Z,28.40
2019-06-26T19:57:50.255Z,28.30
2019-06-26T20:00:18.556Z,28.20
2019-06-26T20:02:46.856Z,28.00
2019-06-26T20:05:15.134Z,28.00
2019-06-26T20:07:43.464Z,27.90
2019-06-26T20:10:11.725Z,27.80
2019-06-26T20:12:39.970Z,27.70
2019-06-26T20:15:08.245Z,27.60
2019-06-26T20:17:36.480Z,27.50
2019-06-26T20:20:06.757Z,27.40
2019-06-26T20:22:34.996Z,27.30
2019-06-26T20:25:04.207Z,27.20
2019-06-26T20:27:32.437Z,27.10
2019-06-26T20:30:00.701Z,27.00
2019-06-26T20:32:29.037Z,27.00
2019-06-26T20:34:57.293Z,26.90
2019-06-26T20:37:25.570Z,26.90
2019-06-26T20:39:53.860Z,26.90
2019-06-26T20:42:22.118Z,26.90
2019-06-26T20:44:50.468Z,26.80
2019-06-26T20:47:18.725Z,26.70
2019-06-26T20:49:53.211Z,26.70
2019-06-26T20:52:16.957Z,26.60
2019-06-26T20:54:59.899Z,26.60
2019-06-26T20:57:15.195Z,26.60
2019-06-26T20:59:43.441Z,26.50
2019-06-26T21:02:11.693Z,26.50
2019-06-26T21:04:39.954Z,26.40
2019-06-26T21:07:08.218Z,26.40
2019-06-26T21:09:36.454Z,26.30
2019-06-26T21:12:04.715Z,26.20
2019-06-26T21:14:32.960Z,26.20
2019-06-26T21:17:01.249Z,26.20
2019-06-26T21:19:29.494Z,26.20
2019-06-26T21:21:57.763Z,26.20
2019-06-26T21:24:26.021Z,26.10
2019-06-26T21:26:54.278Z,26.00
2019-06-26T21:29:22.520Z,26.00
2019-06-26T21:31:50.783Z,25.90
2019-06-26T21:34:19.024Z,25.90
2019-06-26T21:36:47.311Z,25.90
2019-06-26T21:39:15.545Z,25.80
2019-06-26T21:41:43.818Z,25.80
2019-06-26T21:44:12.066Z,25.80
2019-06-26T21:46:40.353Z,25.70
2019-06-26T21:49:08.590Z,25.60
2019-06-26T21:51:36.845Z,25.60
2019-06-26T21:54:05.113Z,25.50
2019-06-26T21:56:33.349Z,25.60
2019-06-26T21:59:01.619Z,25.50
2019-06-26T22:01:32.903Z,25.40
2019-06-26T22:04:01.885Z,25.40
2019-06-26T22:06:30.135Z,25.40
2019-06-26T22:08:58.402Z,25.30
2019-06-26T22:11:26.645Z,25.30
2019-06-26T22:13:54.936Z,25.20
2019-06-26T22:16:23.279Z,25.30
2019-06-26T22:18:51.574Z,25.20
2019-06-26T22:21:19.829Z,25.20
2019-06-26T22:23:48.068Z,25.20
2019-06-26T22:26:16.322Z,25.10
2019-06-26T22:28:44.579Z,25.10
2019-06-26T22:31:12.822Z,25.10
2019-06-26T22:33:41.093Z,25.00
2019-06-26T22:36:09.358Z,25.00
2019-06-26T22:38:37.627Z,25.00
2019-06-26T22:41:05.864Z,25.00
2019-06-26T22:43:34.212Z,24.90
2019-06-26T22:46:02.476Z,24.90
2019-06-26T22:48:30.798Z,24.80
2019-06-26T22:50:59.048Z,24.80
2019-06-26T22:53:27.306Z,24.80
2019-06-26T22:56:07.173Z,24.80
2019-06-26T22:58:25.545Z,24.80
2019-06-26T23:00:53.788Z,24.70
2019-06-26T23:03:22.053Z,24.70
2019-06-26T23:05:50.327Z,24.70
2019-06-26T23:08:18.570Z,24.60
2019-06-26T23:10:46.833Z,24.60
2019-06-26T23:13:15.082Z,24.50
2019-06-26T23:15:43.343Z,24.50
2019-06-26T23:18:11.610Z,24.50
2019-06-26T23:20:40.706Z,24.50
2019-06-26T23:23:08.956Z,24.50
2019-06-26T23:25:37.226Z,24.40
2019-06-26T23:28:05.464Z,24.40
2019-06-26T23:30:33.742Z,24.30
2019-06-26T23:33:02.078Z,24.30
2019-06-26T23:35:30.339Z,24.30
2019-06-26T23:37:58.591Z,24.30
2019-06-26T23:40:26.859Z,24.30
2019-06-26T23:42:55.114Z,24.30
2019-06-26T23:45:23.390Z,24.20
2019-06-26T23:47:51.662Z,24.20
2019-06-26T23:50:19.945Z,24.10
2019-06-26T23:52:48.197Z,24.10
2019-06-26T23:55:16.455Z,24.10
2019-06-26T23:57:58.617Z,24.10
